sensor_id;sensor_type;location;lat;lon;timestamp;P1;durP1;ratioP1;P2;durP2;ratioP2
14241;SDS011;7205;50.864;12.766;2024-01-15T00:00:23;8.50;;;6.60;;
14241;SDS011;7205;50.864;12.766;2024-01-15T00:02:50;9.13;;;6.50;;
14241;SDS011;7205;50.864;12.766;2024-01-15T00:05:17;8.17;;;5.80;;
14241;SDS011;7205;50.864;12.766;2024-01-15T00:07:44;10.03;;;6.50;;
14241;SDS011;7205;50.864;12.766;2024-01-15T00:10:11;10.33;;;6.57;;
14241;SDS011;7205;50.864;12.766;2024-01-15T00:12:39;7.70;;;6.23;;
14241;SDS011;7205;50.864;12.766;2024-01-15T00:15:06;9.70;;;6.63;;
14241;SDS011;7205;50.864;12.766;2024-01-15T00:17:33;9.40;;;6.43;;
14241;SDS011;7205;50.864;12.766;2024-01-15T00:20:00;9.60;;;6.23;;
14241;SDS011;7205;50.864;12.766;2024-01-15T00:22:27;9.00;;;6.47;;
14241;SDS011;7205;50.864;12.766;2024-01-15T00:24:54;9.80;;;6.33;;
14241;SDS011;7205;50.864;12.766;2024-01-15T00:27:21;8.60;;;6.20;;
14241;SDS011;7205;50.864;12.766;2024-01-15T00:29:50;10.67;;;7.47;;
14241;SDS011;7205;50.864;12.766;2024-01-15T00:32:17;10.97;;;6.80;;
14241;SDS011;7205;50.864;12.766;2024-01-15T00:34:45;10.37;;;6.63;;
14241;SDS011;7205;50.864;12.766;2024-01-15T00:37:12;11.30;;;7.87;;
14241;SDS011;7205;50.864;12.766;2024-01-15T00:39:39;8.97;;;6.70;;
14241;SDS011;7205;50.864;12.766;2024-01-15T00:42:05;10.20;;;6.53;;
14241;SDS011;7205;50.864;12.766;2024-01-15T00:44:32;9.07;;;6.87;;
14241;SDS011;7205;50.864;12.766;2024-01-15T00:47:00;10.67;;;7.30;;
14241;SDS011;7205;50.864;12.766;2024-01-15T00:49:27;11.57;;;7.03;;
14241;SDS011;7205;50.864;12.766;2024-01-15T00:51:54;10.67;;;6.93;;
14241;SDS011;7205;50.864;12.766;2024-01-15T00:54:21;12.87;;;6.80;;
14241;SDS011;7205;50.864;12.766;2024-01-15T00:56:48;11.07;;;7.50;;
14241;SDS011;7205;50.864;12.766;2024-01-15T00:59:15;9.93;;;6.63;;
14241;SDS011;7205;50.864;12.766;2024-01-15T01:01:42;15.77;;;8.53;;
14241;SDS011;7205;50.864;12.766;2024-01-15T01:04:12;11.20;;;8.13;;
14241;SDS011;7205;50.864;12.766;2024-01-15T01:06:39;13.10;;;8.47;;
14241;SDS011;7205;50.864;12.766;2024-01-15T01:09:06;9.70;;;7.40;;
14241;SDS011;7205;50.864;12.766;2024-01-15T01:11:33;10.17;;;6.63;;
14241;SDS011;7205;50.864;12.766;2024-01-15T01:14:00;11.13;;;6.90;;
14241;SDS011;7205;50.864;12.766;2024-01-15T01:16:27;7.87;;;5.63;;
14241;SDS011;7205;50.864;12.766;2024-01-15T01:18:53;11.63;;;7.67;;
14241;SDS011;7205;50.864;12.766;2024-01-15T01:21:22;11.60;;;7.37;;
14241;SDS011;7205;50.864;12.766;2024-01-15T01:23:49;10.03;;;7.50;;
14241;SDS011;7205;50.864;12.766;2024-01-15T01:26:16;10.77;;;7.53;;
14241;SDS011;7205;50.864;12.766;2024-01-15T01:28:43;10.77;;;6.73;;
14241;SDS011;7205;50.864;12.766;2024-01-15T01:31:10;9.27;;;6.37;;
14241;SDS011;7205;50.864;12.766;2024-01-15T01:33:37;10.60;;;6.93;;
14241;SDS011;7205;50.864;12.766;2024-01-15T01:36:07;11.03;;;6.77;;
14241;SDS011;7205;50.864;12.766;2024-01-15T01:38:35;10.20;;;7.37;;
14241;SDS011;7205;50.864;12.766;2024-01-15T01:41:02;10.80;;;6.87;;
14241;SDS011;7205;50.864;12.766;2024-01-15T01:43:29;10.57;;;8.23;;
14241;SDS011;7205;50.864;12.766;2024-01-15T01:45:56;13.30;;;8.03;;
14241;SDS011;7205;50.864;12.766;2024-01-15T01:48:24;11.87;;;7.37;;
14241;SDS011;7205;50.864;12.766;2024-01-15T01:50:52;12.60;;;8.27;;
14241;SDS011;7205;50.864;12.766;2024-01-15T01:53:20;12.40;;;8.00;;
14241;SDS011;7205;50.864;12.766;2024-01-15T01:55:48;14.10;;;8.80;;
14241;SDS011;7205;50.864;12.766;2024-01-15T01:58:16;12.77;;;7.93;;
14241;SDS011;7205;50.864;12.766;2024-01-15T02:00:45;12.07;;;7.57;;
14241;SDS011;7205;50.864;12.766;2024-01-15T02:03:13;11.43;;;7.73;;
14241;SDS011;7205;50.864;12.766;2024-01-15T02:05:40;12.23;;;8.00;;
14241;SDS011;7205;50.864;12.766;2024-01-15T02:08:09;12.00;;;8.07;;
14241;SDS011;7205;50.864;12.766;2024-01-15T02:10:36;14.47;;;8.63;;
14241;SDS011;7205;50.864;12.766;2024-01-15T02:13:04;13.73;;;8.80;;
14241;SDS011;7205;50.864;12.766;2024-01-15T02:15:31;13.60;;;8.37;;
14241;SDS011;7205;50.864;12.766;2024-01-15T02:17:59;13.00;;;8.77;;
14241;SDS011;7205;50.864;12.766;2024-01-15T02:20:26;12.17;;;8.63;;
14241;SDS011;7205;50.864;12.766;2024-01-15T02:23:06;13.07;;;8.80;;
14241;SDS011;7205;50.864;12.766;2024-01-15T02:25:35;14.53;;;9.47;;
14241;SDS011;7205;50.864;12.766;2024-01-15T02:28:03;14.67;;;8.70;;
14241;SDS011;7205;50.864;12.766;2024-01-15T02:30:30;13.20;;;9.07;;
14241;SDS011;7205;50.864;12.766;2024-01-15T02:32:58;14.83;;;9.27;;
14241;SDS011;7205;50.864;12.766;2024-01-15T02:35:25;16.27;;;9.17;;
14241;SDS011;7205;50.864;12.766;2024-01-15T02:37:55;12.67;;;8.57;;
14241;SDS011;7205;50.864;12.766;2024-01-15T02:40:23;12.53;;;9.30;;
14241;SDS011;7205;50.864;12.766;2024-01-15T02:42:50;12.50;;;8.93;;
14241;SDS011;7205;50.864;12.766;2024-01-15T02:45:17;14.03;;;9.63;;
14241;SDS011;7205;50.864;12.766;2024-01-15T02:47:44;13.30;;;9.47;;
14241;SDS011;7205;50.864;12.766;2024-01-15T02:50:11;11.20;;;7.47;;
14241;SDS011;7205;50.864;12.766;2024-01-15T02:52:37;13.17;;;8.27;;
14241;SDS011;7205;50.864;12.766;2024-01-15T02:55:04;15.70;;;9.80;;
14241;SDS011;7205;50.864;12.766;2024-01-15T02:57:33;13.37;;;8.77;;
14241;SDS011;7205;50.864;12.766;2024-01-15T03:00:00;16.30;;;8.43;;
14241;SDS011;7205;50.864;12.766;2024-01-15T03:02:27;15.23;;;8.27;;
14241;SDS011;7205;50.864;12.766;2024-01-15T03:04:56;13.80;;;8.73;;
14241;SDS011;7205;50.864;12.766;2024-01-15T03:07:23;15.83;;;9.70;;
14241;SDS011;7205;50.864;12.766;2024-01-15T03:09:50;14.70;;;9.40;;
14241;SDS011;7205;50.864;12.766;2024-01-15T03:12:17;13.83;;;9.47;;
14241;SDS011;7205;50.864;12.766;2024-01-15T03:14:45;13.90;;;8.30;;
14241;SDS011;7205;50.864;12.766;2024-01-15T03:17:12;14.73;;;9.33;;
14241;SDS011;7205;50.864;12.766;2024-01-15T03:19:39;12.87;;;7.90;;
14241;SDS011;7205;50.864;12.766;2024-01-15T03:22:06;15.37;;;9.53;;
14241;SDS011;7205;50.864;12.766;2024-01-15T03:24:34;14.67;;;9.00;;
14241;SDS011;7205;50.864;12.766;2024-01-15T03:27:01;13.73;;;8.93;;
14241;SDS011;7205;50.864;12.766;2024-01-15T03:29:27;11.37;;;7.57;;
14241;SDS011;7205;50.864;12.766;2024-01-15T03:31:55;11.77;;;7.83;;
14241;SDS011;7205;50.864;12.766;2024-01-15T03:34:22;12.97;;;8.37;;
14241;SDS011;7205;50.864;12.766;2024-01-15T03:36:49;12.67;;;7.63;;
14241;SDS011;7205;50.864;12.766;2024-01-15T03:39:16;11.47;;;7.57;;
14241;SDS011;7205;50.864;12.766;2024-01-15T03:41:42;11.37;;;7.97;;
14241;SDS011;7205;50.864;12.766;2024-01-15T03:44:10;13.37;;;7.57;;
14241;SDS011;7205;50.864;12.766;2024-01-15T03:46:37;12.03;;;8.03;;
14241;SDS011;7205;50.864;12.766;2024-01-15T03:49:05;11.67;;;7.77;;
14241;SDS011;7205;50.864;12.766;2024-01-15T03:51:32;10.80;;;8.03;;
14241;SDS011;7205;50.864;12.766;2024-01-15T03:53:58;12.57;;;8.20;;
14241;SDS011;7205;50.864;12.766;2024-01-15T03:56:25;14.73;;;7.63;;
14241;SDS011;7205;50.864;12.766;2024-01-15T03:58:52;14.03;;;8.40;;
14241;SDS011;7205;50.864;12.766;2024-01-15T04:01:19;14.10;;;8.23;;
14241;SDS011;7205;50.864;12.766;2024-01-15T04:03:45;12.80;;;8.13;;
14241;SDS011;7205;50.864;12.766;2024-01-15T04:06:14;13.03;;;7.33;;
14241;SDS011;7205;50.864;12.766;2024-01-15T04:08:40;15.33;;;9.47;;
14241;SDS011;7205;50.864;12.766;2024-01-15T04:11:07;13.67;;;8.00;;
14241;SDS011;7205;50.864;12.766;2024-01-15T04:13:34;12.93;;;8.20;;
14241;SDS011;7205;50.864;12.766;2024-01-15T04:16:01;12.33;;;7.97;;
14241;SDS011;7205;50.864;12.766;2024-01-15T04:18:28;15.23;;;8.67;;
14241;SDS011;7205;50.864;12.766;2024-01-15T04:20:55;11.83;;;8.60;;
14241;SDS011;7205;50.864;12.766;2024-01-15T04:23:23;13.83;;;8.13;;
14241;SDS011;7205;50.864;12.766;2024-01-15T04:25:50;13.03;;;7.03;;
14241;SDS011;7205;50.864;12.766;2024-01-15T04:28:17;15.37;;;8.90;;
14241;SDS011;7205;50.864;12.766;2024-01-15T04:30:43;14.57;;;8.43;;
14241;SDS011;7205;50.864;12.766;2024-01-15T04:33:10;13.47;;;8.50;;
14241;SDS011;7205;50.864;12.766;2024-01-15T04:35:37;14.70;;;8.70;;
14241;SDS011;7205;50.864;12.766;2024-01-15T04:38:04;12.93;;;8.00;;
14241;SDS011;7205;50.864;12.766;2024-01-15T04:40:32;16.30;;;9.97;;
14241;SDS011;7205;50.864;12.766;2024-01-15T04:42:59;15.27;;;8.33;;
14241;SDS011;7205;50.864;12.766;2024-01-15T04:45:26;13.30;;;8.97;;
14241;SDS011;7205;50.864;12.766;2024-01-15T04:47:54;15.97;;;9.53;;
14241;SDS011;7205;50.864;12.766;2024-01-15T04:50:22;16.43;;;7.90;;
14241;SDS011;7205;50.864;12.766;2024-01-15T04:52:49;13.07;;;8.33;;
14241;SDS011;7205;50.864;12.766;2024-01-15T04:55:16;13.67;;;8.33;;
14241;SDS011;7205;50.864;12.766;2024-01-15T04:57:44;15.97;;;9.87;;
14241;SDS011;7205;50.864;12.766;2024-01-15T05:00:11;15.63;;;10.57;;
14241;SDS011;7205;50.864;12.766;2024-01-15T05:02:39;14.83;;;8.93;;
14241;SDS011;7205;50.864;12.766;2024-01-15T05:05:06;16.80;;;9.10;;
14241;SDS011;7205;50.864;12.766;2024-01-15T05:07:33;13.30;;;8.23;;
14241;SDS011;7205;50.864;12.766;2024-01-15T05:10:00;11.63;;;6.93;;
14241;SDS011;7205;50.864;12.766;2024-01-15T05:12:27;10.60;;;7.20;;
14241;SDS011;7205;50.864;12.766;2024-01-15T05:14:55;11.20;;;7.43;;
14241;SDS011;7205;50.864;12.766;2024-01-15T05:17:22;10.60;;;7.87;;
14241;SDS011;7205;50.864;12.766;2024-01-15T05:19:48;13.17;;;8.70;;
14241;SDS011;7205;50.864;12.766;2024-01-15T05:22:15;12.50;;;6.80;;
14241;SDS011;7205;50.864;12.766;2024-01-15T05:24:42;13.20;;;7.73;;
14241;SDS011;7205;50.864;12.766;2024-01-15T05:27:09;9.60;;;6.90;;
14241;SDS011;7205;50.864;12.766;2024-01-15T05:29:36;10.27;;;7.20;;
14241;SDS011;7205;50.864;12.766;2024-01-15T05:32:04;10.70;;;7.40;;
14241;SDS011;7205;50.864;12.766;2024-01-15T05:34:31;10.73;;;6.30;;
14241;SDS011;7205;50.864;12.766;2024-01-15T05:36:58;12.33;;;7.00;;
14241;SDS011;7205;50.864;12.766;2024-01-15T05:39:24;8.33;;;5.60;;
14241;SDS011;7205;50.864;12.766;2024-01-15T05:41:51;9.13;;;6.10;;
14241;SDS011;7205;50.864;12.766;2024-01-15T05:44:18;12.63;;;6.40;;
14241;SDS011;7205;50.864;12.766;2024-01-15T05:46:45;8.90;;;5.80;;
14241;SDS011;7205;50.864;12.766;2024-01-15T05:49:13;8.63;;;5.47;;
14241;SDS011;7205;50.864;12.766;2024-01-15T05:51:40;9.00;;;6.10;;
14241;SDS011;7205;50.864;12.766;2024-01-15T05:54:07;9.03;;;5.83;;
14241;SDS011;7205;50.864;12.766;2024-01-15T05:56:34;7.17;;;5.17;;
14241;SDS011;7205;50.864;12.766;2024-01-15T05:59:01;10.17;;;6.63;;
14241;SDS011;7205;50.864;12.766;2024-01-15T06:01:27;11.37;;;6.60;;
14241;SDS011;7205;50.864;12.766;2024-01-15T06:03:54;9.10;;;6.17;;
14241;SDS011;7205;50.864;12.766;2024-01-15T06:06:23;9.50;;;6.33;;
14241;SDS011;7205;50.864;12.766;2024-01-15T06:08:50;8.10;;;5.60;;
14241;SDS011;7205;50.864;12.766;2024-01-15T06:11:16;8.60;;;6.43;;
14241;SDS011;7205;50.864;12.766;2024-01-15T06:13:43;7.63;;;5.30;;
14241;SDS011;7205;50.864;12.766;2024-01-15T06:16:14;9.37;;;5.93;;
14241;SDS011;7205;50.864;12.766;2024-01-15T06:18:41;9.57;;;6.13;;
14241;SDS011;7205;50.864;12.766;2024-01-15T06:21:08;9.53;;;7.03;;
14241;SDS011;7205;50.864;12.766;2024-01-15T06:23:37;9.17;;;6.77;;
14241;SDS011;7205;50.864;12.766;2024-01-15T06:26:04;11.77;;;6.90;;
14241;SDS011;7205;50.864;12.766;2024-01-15T06:28:31;8.87;;;6.37;;
14241;SDS011;7205;50.864;12.766;2024-01-15T06:30:58;11.73;;;6.40;;
14241;SDS011;7205;50.864;12.766;2024-01-15T06:33:25;9.00;;;6.23;;
14241;SDS011;7205;50.864;12.766;2024-01-15T06:35:51;11.07;;;7.27;;
14241;SDS011;7205;50.864;12.766;2024-01-15T06:38:18;8.20;;;5.93;;
14241;SDS011;7205;50.864;12.766;2024-01-15T06:40:46;10.17;;;6.73;;
14241;SDS011;7205;50.864;12.766;2024-01-15T06:43:13;10.10;;;7.43;;
14241;SDS011;7205;50.864;12.766;2024-01-15T06:45:40;11.23;;;7.03;;
14241;SDS011;7205;50.864;12.766;2024-01-15T06:48:07;10.87;;;6.33;;
14241;SDS011;7205;50.864;12.766;2024-01-15T06:50:34;9.27;;;6.20;;
14241;SDS011;7205;50.864;12.766;2024-01-15T06:53:01;7.97;;;6.07;;
14241;SDS011;7205;50.864;12.766;2024-01-15T06:55:27;11.03;;;6.83;;
14241;SDS011;7205;50.864;12.766;2024-01-15T06:57:56;11.73;;;7.13;;
14241;SDS011;7205;50.864;12.766;2024-01-15T07:00:22;11.60;;;7.00;;
14241;SDS011;7205;50.864;12.766;2024-01-15T07:02:49;11.67;;;7.10;;
14241;SDS011;7205;50.864;12.766;2024-01-15T07:05:17;21.57;;;9.27;;
14241;SDS011;7205;50.864;12.766;2024-01-15T07:07:43;24.63;;;10.07;;
14241;SDS011;7205;50.864;12.766;2024-01-15T07:10:10;11.73;;;7.13;;
14241;SDS011;7205;50.864;12.766;2024-01-15T07:12:37;10.83;;;7.67;;
14241;SDS011;7205;50.864;12.766;2024-01-15T07:15:06;9.20;;;6.20;;
14241;SDS011;7205;50.864;12.766;2024-01-15T07:17:33;11.43;;;7.17;;
14241;SDS011;7205;50.864;12.766;2024-01-15T07:20:00;13.03;;;7.37;;
14241;SDS011;7205;50.864;12.766;2024-01-15T07:22:27;13.90;;;7.90;;
14241;SDS011;7205;50.864;12.766;2024-01-15T07:24:54;12.47;;;6.93;;
14241;SDS011;7205;50.864;12.766;2024-01-15T07:27:21;10.47;;;7.00;;
14241;SDS011;7205;50.864;12.766;2024-01-15T07:29:48;9.17;;;6.40;;
14241;SDS011;7205;50.864;12.766;2024-01-15T07:32:16;14.07;;;8.23;;
14241;SDS011;7205;50.864;12.766;2024-01-15T07:34:43;10.13;;;6.57;;
14241;SDS011;7205;50.864;12.766;2024-01-15T07:37:10;10.67;;;6.90;;
14241;SDS011;7205;50.864;12.766;2024-01-15T07:39:36;11.30;;;7.03;;
14241;SDS011;7205;50.864;12.766;2024-01-15T07:42:04;10.17;;;7.20;;
14241;SDS011;7205;50.864;12.766;2024-01-15T07:44:31;11.20;;;7.73;;
14241;SDS011;7205;50.864;12.766;2024-01-15T07:46:57;9.87;;;6.70;;
14241;SDS011;7205;50.864;12.766;2024-01-15T07:49:26;12.77;;;7.70;;
14241;SDS011;7205;50.864;12.766;2024-01-15T07:51:53;9.70;;;7.00;;
14241;SDS011;7205;50.864;12.766;2024-01-15T07:54:20;10.17;;;7.07;;
14241;SDS011;7205;50.864;12.766;2024-01-15T07:56:53;8.93;;;6.63;;
14241;SDS011;7205;50.864;12.766;2024-01-15T07:59:20;10.73;;;6.90;;
14241;SDS011;7205;50.864;12.766;2024-01-15T08:01:47;9.60;;;6.37;;
14241;SDS011;7205;50.864;12.766;2024-01-15T08:04:14;7.70;;;5.33;;
14241;SDS011;7205;50.864;12.766;2024-01-15T08:06:42;6.83;;;5.27;;
14241;SDS011;7205;50.864;12.766;2024-01-15T08:09:08;8.37;;;6.30;;
14241;SDS011;7205;50.864;12.766;2024-01-15T08:11:35;10.27;;;6.70;;
14241;SDS011;7205;50.864;12.766;2024-01-15T08:14:02;6.13;;;5.43;;
14241;SDS011;7205;50.864;12.766;2024-01-15T08:16:29;11.80;;;4.90;;
14241;SDS011;7205;50.864;12.766;2024-01-15T08:18:56;8.97;;;6.17;;
14241;SDS011;7205;50.864;12.766;2024-01-15T08:21:23;9.00;;;5.87;;
14241;SDS011;7205;50.864;12.766;2024-01-15T08:23:51;6.70;;;4.87;;
14241;SDS011;7205;50.864;12.766;2024-01-15T08:26:18;8.23;;;6.57;;
14241;SDS011;7205;50.864;12.766;2024-01-15T08:28:46;8.70;;;6.03;;
14241;SDS011;7205;50.864;12.766;2024-01-15T08:31:14;8.33;;;5.50;;
14241;SDS011;7205;50.864;12.766;2024-01-15T08:33:44;7.13;;;5.53;;
14241;SDS011;7205;50.864;12.766;2024-01-15T08:36:11;7.50;;;5.10;;
14241;SDS011;7205;50.864;12.766;2024-01-15T08:38:38;9.63;;;5.83;;
14241;SDS011;7205;50.864;12.766;2024-01-15T08:41:07;10.40;;;6.10;;
14241;SDS011;7205;50.864;12.766;2024-01-15T08:43:34;11.00;;;6.97;;
14241;SDS011;7205;50.864;12.766;2024-01-15T08:46:01;8.73;;;6.13;;
14241;SDS011;7205;50.864;12.766;2024-01-15T08:48:28;7.83;;;5.73;;
14241;SDS011;7205;50.864;12.766;2024-01-15T08:50:55;6.80;;;5.40;;
14241;SDS011;7205;50.864;12.766;2024-01-15T08:53:22;7.10;;;5.37;;
14241;SDS011;7205;50.864;12.766;2024-01-15T08:55:49;7.83;;;5.97;;
14241;SDS011;7205;50.864;12.766;2024-01-15T08:58:17;11.07;;;6.60;;
14241;SDS011;7205;50.864;12.766;2024-01-15T09:00:44;9.77;;;6.30;;
14241;SDS011;7205;50.864;12.766;2024-01-15T09:03:11;10.17;;;6.83;;
14241;SDS011;7205;50.864;12.766;2024-01-15T09:05:37;8.77;;;5.70;;
14241;SDS011;7205;50.864;12.766;2024-01-15T09:08:06;6.70;;;5.07;;
14241;SDS011;7205;50.864;12.766;2024-01-15T09:10:32;7.80;;;5.40;;
14241;SDS011;7205;50.864;12.766;2024-01-15T09:12:59;7.10;;;4.70;;
14241;SDS011;7205;50.864;12.766;2024-01-15T09:15:27;9.30;;;5.77;;
14241;SDS011;7205;50.864;12.766;2024-01-15T09:17:54;6.53;;;5.10;;
14241;SDS011;7205;50.864;12.766;2024-01-15T09:20:22;10.30;;;5.90;;
14241;SDS011;7205;50.864;12.766;2024-01-15T09:22:51;9.17;;;5.67;;
14241;SDS011;7205;50.864;12.766;2024-01-15T09:25:17;11.47;;;5.80;;
14241;SDS011;7205;50.864;12.766;2024-01-15T09:27:45;8.53;;;5.50;;
14241;SDS011;7205;50.864;12.766;2024-01-15T09:30:12;6.80;;;5.33;;
14241;SDS011;7205;50.864;12.766;2024-01-15T09:32:40;8.00;;;5.77;;
14241;SDS011;7205;50.864;12.766;2024-01-15T09:35:07;6.90;;;5.07;;
14241;SDS011;7205;50.864;12.766;2024-01-15T09:37:35;8.30;;;5.47;;
14241;SDS011;7205;50.864;12.766;2024-01-15T09:40:02;7.17;;;4.93;;
14241;SDS011;7205;50.864;12.766;2024-01-15T09:42:30;8.70;;;6.00;;
14241;SDS011;7205;50.864;12.766;2024-01-15T09:44:57;7.43;;;5.40;;
14241;SDS011;7205;50.864;12.766;2024-01-15T09:47:24;6.37;;;5.10;;
14241;SDS011;7205;50.864;12.766;2024-01-15T09:49:52;5.57;;;4.73;;
14241;SDS011;7205;50.864;12.766;2024-01-15T09:52:19;7.50;;;5.30;;
14241;SDS011;7205;50.864;12.766;2024-01-15T09:54:47;7.53;;;5.50;;
14241;SDS011;7205;50.864;12.766;2024-01-15T09:57:16;5.97;;;4.90;;
14241;SDS011;7205;50.864;12.766;2024-01-15T09:59:43;5.87;;;4.83;;
14241;SDS011;7205;50.864;12.766;2024-01-15T10:02:11;8.33;;;5.43;;
14241;SDS011;7205;50.864;12.766;2024-01-15T10:04:42;9.00;;;5.20;;
14241;SDS011;7205;50.864;12.766;2024-01-15T10:07:10;7.07;;;4.73;;
14241;SDS011;7205;50.864;12.766;2024-01-15T10:09:41;7.00;;;5.50;;
14241;SDS011;7205;50.864;12.766;2024-01-15T10:12:09;4.33;;;3.47;;
14241;SDS011;7205;50.864;12.766;2024-01-15T10:14:36;7.13;;;4.93;;
14241;SDS011;7205;50.864;12.766;2024-01-15T10:17:11;5.50;;;4.90;;
14241;SDS011;7205;50.864;12.766;2024-01-15T10:19:39;6.40;;;4.43;;
14241;SDS011;7205;50.864;12.766;2024-01-15T10:22:07;5.90;;;4.83;;
14241;SDS011;7205;50.864;12.766;2024-01-15T10:24:36;6.03;;;5.10;;
14241;SDS011;7205;50.864;12.766;2024-01-15T10:27:07;4.83;;;4.33;;
14241;SDS011;7205;50.864;12.766;2024-01-15T10:29:35;6.10;;;4.50;;
14241;SDS011;7205;50.864;12.766;2024-01-15T10:32:02;6.47;;;4.77;;
14241;SDS011;7205;50.864;12.766;2024-01-15T10:34:32;6.17;;;3.93;;
14241;SDS011;7205;50.864;12.766;2024-01-15T10:36:59;4.97;;;4.13;;
14241;SDS011;7205;50.864;12.766;2024-01-15T10:39:26;6.07;;;4.47;;
14241;SDS011;7205;50.864;12.766;2024-01-15T10:41:54;5.43;;;4.63;;
14241;SDS011;7205;50.864;12.766;2024-01-15T10:44:20;5.97;;;4.23;;
14241;SDS011;7205;50.864;12.766;2024-01-15T10:46:47;5.90;;;4.23;;
14241;SDS011;7205;50.864;12.766;2024-01-15T10:49:14;5.77;;;4.90;;
14241;SDS011;7205;50.864;12.766;2024-01-15T10:51:41;6.93;;;5.10;;
14241;SDS011;7205;50.864;12.766;2024-01-15T10:54:09;5.83;;;4.13;;
14241;SDS011;7205;50.864;12.766;2024-01-15T10:56:37;7.17;;;4.07;;
14241;SDS011;7205;50.864;12.766;2024-01-15T10:59:06;9.80;;;4.30;;
14241;SDS011;7205;50.864;12.766;2024-01-15T11:01:35;6.43;;;4.70;;
14241;SDS011;7205;50.864;12.766;2024-01-15T11:04:03;5.23;;;4.73;;
14241;SDS011;7205;50.864;12.766;2024-01-15T11:06:40;6.43;;;4.10;;
14241;SDS011;7205;50.864;12.766;2024-01-15T11:09:08;7.53;;;4.00;;
14241;SDS011;7205;50.864;12.766;2024-01-15T11:11:35;5.93;;;4.47;;
14241;SDS011;7205;50.864;12.766;2024-01-15T11:14:02;5.80;;;4.00;;
14241;SDS011;7205;50.864;12.766;2024-01-15T11:19:38;4.50;;;4.03;;
14241;SDS011;7205;50.864;12.766;2024-01-15T11:22:08;5.17;;;4.20;;
14241;SDS011;7205;50.864;12.766;2024-01-15T11:24:37;6.87;;;4.47;;
14241;SDS011;7205;50.864;12.766;2024-01-15T11:27:07;5.67;;;3.83;;
14241;SDS011;7205;50.864;12.766;2024-01-15T11:29:41;5.27;;;4.17;;
14241;SDS011;7205;50.864;12.766;2024-01-15T11:32:21;5.40;;;4.07;;
14241;SDS011;7205;50.864;12.766;2024-01-15T11:35:15;6.50;;;3.70;;
14241;SDS011;7205;50.864;12.766;2024-01-15T11:37:58;6.00;;;4.00;;
14241;SDS011;7205;50.864;12.766;2024-01-15T11:40:39;5.43;;;3.80;;
14241;SDS011;7205;50.864;12.766;2024-01-15T11:43:09;4.47;;;4.07;;
14241;SDS011;7205;50.864;12.766;2024-01-15T11:45:45;6.83;;;4.90;;
14241;SDS011;7205;50.864;12.766;2024-01-15T11:48:20;5.10;;;3.63;;
14241;SDS011;7205;50.864;12.766;2024-01-15T11:50:50;3.57;;;3.27;;
14241;SDS011;7205;50.864;12.766;2024-01-15T11:53:21;4.93;;;4.23;;
14241;SDS011;7205;50.864;12.766;2024-01-15T11:55:55;4.80;;;3.70;;
14241;SDS011;7205;50.864;12.766;2024-01-15T11:58:25;4.30;;;3.50;;
14241;SDS011;7205;50.864;12.766;2024-01-15T12:00:52;5.20;;;3.80;;
14241;SDS011;7205;50.864;12.766;2024-01-15T12:03:20;4.77;;;3.80;;
14241;SDS011;7205;50.864;12.766;2024-01-15T12:05:47;5.87;;;4.03;;
14241;SDS011;7205;50.864;12.766;2024-01-15T12:08:14;3.63;;;3.33;;
14241;SDS011;7205;50.864;12.766;2024-01-15T12:10:46;5.63;;;3.97;;
14241;SDS011;7205;50.864;12.766;2024-01-15T12:13:14;6.20;;;4.13;;
14241;SDS011;7205;50.864;12.766;2024-01-15T12:15:43;5.10;;;3.73;;
14241;SDS011;7205;50.864;12.766;2024-01-15T12:18:12;4.80;;;3.73;;
14241;SDS011;7205;50.864;12.766;2024-01-15T12:20:40;3.93;;;2.93;;
14241;SDS011;7205;50.864;12.766;2024-01-15T12:23:08;4.90;;;3.50;;
14241;SDS011;7205;50.864;12.766;2024-01-15T12:25:37;4.17;;;3.77;;
14241;SDS011;7205;50.864;12.766;2024-01-15T12:28:05;3.80;;;3.40;;
14241;SDS011;7205;50.864;12.766;2024-01-15T12:30:33;4.67;;;3.40;;
14241;SDS011;7205;50.864;12.766;2024-01-15T12:33:01;4.03;;;3.47;;
14241;SDS011;7205;50.864;12.766;2024-01-15T12:35:29;4.00;;;3.60;;
14241;SDS011;7205;50.864;12.766;2024-01-15T12:37:56;5.27;;;4.00;;
14241;SDS011;7205;50.864;12.766;2024-01-15T12:40:23;4.37;;;3.80;;
14241;SDS011;7205;50.864;12.766;2024-01-15T12:42:52;4.70;;;3.80;;
14241;SDS011;7205;50.864;12.766;2024-01-15T12:45:18;5.27;;;4.30;;
14241;SDS011;7205;50.864;12.766;2024-01-15T12:47:45;5.00;;;3.67;;
14241;SDS011;7205;50.864;12.766;2024-01-15T12:50:12;5.17;;;3.83;;
14241;SDS011;7205;50.864;12.766;2024-01-15T12:52:40;4.17;;;3.60;;
14241;SDS011;7205;50.864;12.766;2024-01-15T12:55:07;4.93;;;4.00;;
14241;SDS011;7205;50.864;12.766;2024-01-15T12:57:35;5.47;;;4.00;;
14241;SDS011;7205;50.864;12.766;2024-01-15T13:00:04;4.53;;;3.77;;
14241;SDS011;7205;50.864;12.766;2024-01-15T13:02:32;5.07;;;3.70;;
14241;SDS011;7205;50.864;12.766;2024-01-15T13:05:00;6.77;;;3.77;;
14241;SDS011;7205;50.864;12.766;2024-01-15T13:07:29;7.07;;;4.20;;
14241;SDS011;7205;50.864;12.766;2024-01-15T13:09:55;4.77;;;3.70;;
14241;SDS011;7205;50.864;12.766;2024-01-15T13:12:22;5.97;;;3.97;;
14241;SDS011;7205;50.864;12.766;2024-01-15T13:14:49;3.77;;;3.33;;
14241;SDS011;7205;50.864;12.766;2024-01-15T13:17:18;4.87;;;3.80;;
14241;SDS011;7205;50.864;12.766;2024-01-15T13:19:56;5.03;;;3.73;;
14241;SDS011;7205;50.864;12.766;2024-01-15T13:22:23;4.73;;;4.13;;
14241;SDS011;7205;50.864;12.766;2024-01-15T13:24:54;6.63;;;3.90;;
14241;SDS011;7205;50.864;12.766;2024-01-15T13:27:21;6.40;;;3.70;;
14241;SDS011;7205;50.864;12.766;2024-01-15T13:29:48;3.93;;;3.27;;
14241;SDS011;7205;50.864;12.766;2024-01-15T13:32:16;5.83;;;3.70;;
14241;SDS011;7205;50.864;12.766;2024-01-15T13:34:50;5.17;;;3.70;;
14241;SDS011;7205;50.864;12.766;2024-01-15T13:37:17;7.10;;;4.30;;
14241;SDS011;7205;50.864;12.766;2024-01-15T13:39:44;5.50;;;3.80;;
14241;SDS011;7205;50.864;12.766;2024-01-15T13:42:11;5.33;;;3.90;;
14241;SDS011;7205;50.864;12.766;2024-01-15T13:44:38;4.67;;;3.93;;
14241;SDS011;7205;50.864;12.766;2024-01-15T13:47:04;4.43;;;3.70;;
14241;SDS011;7205;50.864;12.766;2024-01-15T13:49:33;4.93;;;4.20;;
14241;SDS011;7205;50.864;12.766;2024-01-15T13:52:01;5.47;;;3.93;;
14241;SDS011;7205;50.864;12.766;2024-01-15T13:54:29;5.47;;;3.90;;
14241;SDS011;7205;50.864;12.766;2024-01-15T13:56:56;4.57;;;4.00;;
14241;SDS011;7205;50.864;12.766;2024-01-15T13:59:24;5.70;;;4.20;;
14241;SDS011;7205;50.864;12.766;2024-01-15T14:01:50;8.03;;;5.97;;
14241;SDS011;7205;50.864;12.766;2024-01-15T14:04:17;6.80;;;4.97;;
14241;SDS011;7205;50.864;12.766;2024-01-15T14:06:46;4.80;;;4.27;;
14241;SDS011;7205;50.864;12.766;2024-01-15T14:09:12;5.37;;;4.00;;
14241;SDS011;7205;50.864;12.766;2024-01-15T14:11:39;4.80;;;4.00;;
14241;SDS011;7205;50.864;12.766;2024-01-15T14:14:06;4.93;;;4.43;;
14241;SDS011;7205;50.864;12.766;2024-01-15T14:16:34;4.10;;;3.70;;
14241;SDS011;7205;50.864;12.766;2024-01-15T14:19:01;6.57;;;4.17;;
14241;SDS011;7205;50.864;12.766;2024-01-15T14:21:28;4.47;;;4.00;;
14241;SDS011;7205;50.864;12.766;2024-01-15T14:23:56;6.63;;;4.73;;
14241;SDS011;7205;50.864;12.766;2024-01-15T14:26:23;6.00;;;4.50;;
14241;SDS011;7205;50.864;12.766;2024-01-15T14:28:50;6.63;;;4.57;;
14241;SDS011;7205;50.864;12.766;2024-01-15T14:31:17;6.27;;;4.13;;
14241;SDS011;7205;50.864;12.766;2024-01-15T14:33:45;6.33;;;4.73;;
14241;SDS011;7205;50.864;12.766;2024-01-15T14:36:12;5.27;;;4.53;;
14241;SDS011;7205;50.864;12.766;2024-01-15T14:38:39;4.83;;;4.27;;
14241;SDS011;7205;50.864;12.766;2024-01-15T14:41:07;5.07;;;4.50;;
14241;SDS011;7205;50.864;12.766;2024-01-15T14:43:33;8.10;;;4.20;;
14241;SDS011;7205;50.864;12.766;2024-01-15T14:46:00;6.13;;;4.27;;